createdAt,value
2022-11-04T00:00:10.091Z,10.03
2022-11-04T00:03:11.733Z,10.03
2022-11-04T00:06:13.626Z,10.03
2022-11-04T00:09:17.867Z,10.01
2022-11-04T00:12:25.371Z,9.98
2022-11-04T00:15:47.218Z,9.95
2022-11-04T00:18:48.887Z,9.92
2022-11-04T00:22:09.516Z,9.88
2022-11-04T00:25:30.518Z,9.86
2022-11-04T00:28:44.153Z,9.85
2022-11-04T00:32:06.062Z,9.83
2022-11-04T00:35:08.721Z,9.81
2022-11-04T00:38:11.044Z,9.79
2022-11-04T00:41:28.403Z,9.76
2022-11-04T00:44:30.031Z,9.76
2022-11-04T00:47:33.009Z,9.76
2022-11-04T00:50:34.632Z,9.75
2022-11-04T00:53:36.157Z,9.75
2022-11-04T00:56:37.721Z,9.75
2022-11-04T00:59:39.993Z,9.74
2022-11-04T01:02:42.981Z,9.73
2022-11-04T01:05:44.727Z,9.74
2022-11-04T01:08:46.533Z,9.74
2022-11-04T01:11:48.025Z,9.71
2022-11-04T01:14:49.814Z,9.72
2022-11-04T01:17:52.960Z,9.71
2022-11-04T01:21:00.431Z,9.71
2022-11-04T01:24:02.521Z,9.72
2022-11-04T01:27:04.189Z,9.73
2022-11-04T01:30:06.455Z,9.75
2022-11-04T01:33:09.367Z,9.75
2022-11-04T01:36:11.227Z,9.76
2022-11-04T01:39:13.386Z,9.76
2022-11-04T01:42:15.853Z,9.76
2022-11-04T01:45:19.357Z,9.77
2022-11-04T01:48:25.230Z,9.78
2022-11-04T01:51:27.482Z,9.77
2022-11-04T01:54:29.660Z,9.77
2022-11-04T01:57:34.884Z,9.76
2022-11-04T02:00:38.423Z,9.77
2022-11-04T02:03:47.572Z,9.78
2022-11-04T02:06:50.616Z,9.80
2022-11-04T02:09:52.510Z,9.75
2022-11-04T02:12:54.959Z,9.76
2022-11-04T02:16:03.646Z,9.75
2022-11-04T02:19:19.283Z,9.73
2022-11-04T02:22:31.582Z,9.67
2022-11-04T02:25:46.679Z,9.56
2022-11-04T02:28:55.343Z,9.49
2022-11-04T02:32:03.474Z,9.44
2022-11-04T02:35:09.723Z,9.36
2022-11-04T02:38:14.480Z,9.30
2022-11-04T02:41:21.866Z,9.23
2022-11-04T02:44:30.026Z,9.20
2022-11-04T02:47:35.060Z,9.15
2022-11-04T02:50:42.477Z,9.12
2022-11-04T02:53:47.856Z,9.12
2022-11-04T02:56:51.354Z,9.11
2022-11-04T02:59:55.145Z,9.07
2022-11-04T03:03:00.675Z,9.02
2022-11-04T03:06:03.552Z,8.96
2022-11-04T03:09:05.401Z,8.95
2022-11-04T03:12:09.587Z,8.95
2022-11-04T03:15:14.053Z,8.93
2022-11-04T03:18:19.997Z,8.94
2022-11-04T03:21:22.591Z,8.94
2022-11-04T03:24:24.571Z,8.95
2022-11-04T03:27:30.363Z,8.94
2022-11-04T03:30:37.922Z,8.91
2022-11-04T03:33:43.953Z,8.90
2022-11-04T03:36:45.665Z,8.87
2022-11-04T03:39:47.441Z,8.87
2022-11-04T03:42:53.813Z,8.85
2022-11-04T03:45:55.903Z,8.84
2022-11-04T03:49:00.422Z,8.82
2022-11-04T03:52:02.080Z,8.81
2022-11-04T03:55:04.777Z,8.81
2022-11-04T03:58:08.532Z,8.81
2022-11-04T04:01:15.219Z,8.80
2022-11-04T04:04:21.343Z,8.80
2022-11-04T04:07:29.777Z,8.79
2022-11-04T04:10:39.959Z,8.80
2022-11-04T04:13:45.810Z,8.78
2022-11-04T04:16:47.650Z,8.82
2022-11-04T04:19:53.261Z,8.80
2022-11-04T04:22:57.157Z,8.81
2022-11-04T04:26:19.729Z,8.80
2022-11-04T04:29:22.381Z,8.81
2022-11-04T04:32:26.355Z,8.81
2022-11-04T04:35:43.842Z,8.81
2022-11-04T04:39:04.146Z,8.80
2022-11-04T04:42:24.786Z,8.81
2022-11-04T04:45:30.396Z,8.80
2022-11-04T04:48:31.865Z,8.81
2022-11-04T04:51:36.586Z,8.83
2022-11-04T04:54:38.040Z,8.81
2022-11-04T04:57:39.557Z,8.81
2022-11-04T05:00:41.047Z,8.80
2022-11-04T05:03:45.284Z,8.82
2022-11-04T05:06:48.483Z,8.83
2022-11-04T05:09:50.423Z,8.81
2022-11-04T05:13:10.585Z,8.78
2022-11-04T05:16:12.240Z,8.77
2022-11-04T05:19:14.368Z,8.77
2022-11-04T05:22:17.249Z,8.71
2022-11-04T05:25:18.711Z,8.70
2022-11-04T05:28:20.667Z,8.69
2022-11-04T05:31:22.391Z,8.70
2022-11-04T05:34:33.153Z,8.67
2022-11-04T05:37:36.362Z,8.69
2022-11-04T05:40:37.833Z,8.70
2022-11-04T05:43:39.396Z,8.69
2022-11-04T05:46:41.015Z,8.67
2022-11-04T05:49:42.639Z,8.69
2022-11-04T05:52:48.686Z,8.67
2022-11-04T05:55:50.274Z,8.67
2022-11-04T05:58:52.002Z,8.68
2022-11-04T06:01:53.725Z,8.67
2022-11-04T06:04:55.301Z,8.66
2022-11-04T06:07:58.361Z,8.66
2022-11-04T06:10:59.856Z,8.66
2022-11-04T06:14:01.772Z,8.66
2022-11-04T06:17:03.800Z,8.65
2022-11-04T06:20:06.637Z,8.66
2022-11-04T06:23:09.629Z,8.66
2022-11-04T06:26:14.959Z,8.66
2022-11-04T06:29:22.726Z,8.65
2022-11-04T06:32:24.569Z,8.64
2022-11-04T06:35:26.181Z,8.60
2022-11-04T06:38:29.815Z,8.60
2022-11-04T06:41:31.369Z,8.59
2022-11-04T06:44:34.501Z,8.58
2022-11-04T06:47:36.493Z,8.56
2022-11-04T06:50:37.997Z,8.55
2022-11-04T06:53:40.858Z,8.55
2022-11-04T06:56:42.657Z,8.57
2022-11-04T06:59:44.938Z,8.58
2022-11-04T07:02:46.719Z,8.56
2022-11-04T07:05:48.510Z,8.57
2022-11-04T07:08:52.893Z,8.57
2022-11-04T07:11:54.517Z,8.57
2022-11-04T07:14:56.481Z,8.55
2022-11-04T07:17:58.657Z,8.56
2022-11-04T07:21:03.385Z,8.57
2022-11-04T07:24:08.930Z,8.55
2022-11-04T07:27:10.575Z,8.55
2022-11-04T07:30:12.336Z,8.54
2022-11-04T07:33:13.818Z,8.57
2022-11-04T07:36:17.219Z,8.55
2022-11-04T07:39:20.215Z,8.54
2022-11-04T07:42:21.897Z,8.53
2022-11-04T07:45:23.638Z,8.54
2022-11-04T07:48:25.239Z,8.55
2022-11-04T07:51:27.178Z,8.58
2022-11-04T07:54:30.151Z,8.58
2022-11-04T07:57:31.604Z,8.61
2022-11-04T08:00:33.147Z,8.64
2022-11-04T08:03:35.388Z,8.65
2022-11-04T08:06:37.152Z,8.66
2022-11-04T08:09:40.612Z,8.63
2022-11-04T08:12:42.072Z,8.64
2022-11-04T08:15:43.608Z,8.64
2022-11-04T08:18:45.556Z,8.65
2022-11-04T08:21:47.502Z,8.63
2022-11-04T08:24:50.497Z,8.59
2022-11-04T08:27:56.678Z,8.59
2022-11-04T08:31:03.117Z,8.59
2022-11-04T08:34:06.284Z,8.61
2022-11-04T08:37:08.107Z,8.67
2022-11-04T08:40:11.577Z,8.73
2022-11-04T08:43:13.532Z,8.75
2022-11-04T08:46:15.146Z,8.76
2022-11-04T08:49:21.138Z,8.73
2022-11-04T08:52:23.872Z,8.77
2022-11-04T08:55:28.308Z,8.84
2022-11-04T08:58:29.903Z,8.92
2022-11-04T09:01:35.877Z,8.96
2022-11-04T09:04:37.813Z,9.07
2022-11-04T09:07:39.651Z,9.16
2022-11-04T09:10:43.683Z,9.22
2022-11-04T09:13:45.508Z,9.17
2022-11-04T09:16:47.281Z,9.15
2022-11-04T09:19:48.868Z,9.13
2022-11-04T09:22:51.021Z,9.24
2022-11-04T09:25:55.791Z,9.36
2022-11-04T09:28:58.219Z,9.26
2022-11-04T09:31:59.876Z,9.24
2022-11-04T09:35:01.469Z,9.24
2022-11-04T09:38:03.159Z,9.22
2022-11-04T09:41:11.794Z,9.16
2022-11-04T09:44:19.472Z,9.20
2022-11-04T09:47:22.416Z,9.26
2022-11-04T09:50:25.171Z,9.35
2022-11-04T09:53:28.429Z,9.52
2022-11-04T09:56:33.309Z,9.68
2022-11-04T09:59:36.951Z,9.62
2022-11-04T10:02:46.166Z,9.59
2022-11-04T10:05:54.889Z,9.59
2022-11-04T10:09:03.594Z,9.56
2022-11-04T10:12:13.053Z,9.53
2022-11-04T10:15:23.142Z,9.50
2022-11-04T10:18:33.054Z,9.46
2022-11-04T10:21:40.581Z,9.44
2022-11-04T10:24:46.522Z,9.43
2022-11-04T10:27:52.165Z,9.47
2022-11-04T10:30:54.061Z,9.53
2022-11-04T10:33:59.462Z,9.50
2022-11-04T10:37:02.022Z,9.50
2022-11-04T10:40:15.642Z,9.56
2022-11-04T10:43:23.031Z,9.64
2022-11-04T10:46:39.162Z,9.76
2022-11-04T10:50:00.249Z,9.82
2022-11-04T10:53:10.577Z,9.87
2022-11-04T10:56:17.907Z,9.82
2022-11-04T10:59:24.568Z,9.69
2022-11-04T11:02:47.401Z,9.94
2022-11-04T11:05:49.525Z,10.04
2022-11-04T11:08:51.913Z,10.20
2022-11-04T11:11:53.617Z,10.22
2022-11-04T11:14:56.508Z,10.27
2022-11-04T11:18:00.906Z,10.39
2022-11-04T11:21:08.124Z,10.69
2022-11-04T11:24:14.344Z,10.77
2022-11-04T11:27:22.518Z,10.61
2022-11-04T11:30:28.360Z,10.61
2022-11-04T11:33:31.404Z,10.65
2022-11-04T11:36:34.190Z,10.79
2022-11-04T11:39:38.210Z,10.84
2022-11-04T11:42:41.528Z,10.76
2022-11-04T11:45:49.357Z,10.79
2022-11-04T11:48:52.127Z,10.65
2022-11-04T11:51:53.675Z,10.67
2022-11-04T11:54:57.756Z,10.64
2022-11-04T12:01:30.525Z,10.76
2022-11-04T12:11:23.161Z,10.93
2022-11-04T12:14:30.366Z,10.92
2022-11-04T12:17:43.238Z,10.92
2022-11-04T12:20:52.049Z,10.88
2022-11-04T12:23:56.919Z,11.07
2022-11-04T12:27:03.736Z,11.33
2022-11-04T12:30:07.233Z,11.37
2022-11-04T12:33:18.240Z,11.50
2022-11-04T12:36:26.818Z,11.64
2022-11-04T12:39:45.089Z,11.58
2022-11-04T12:42:56.735Z,11.45
2022-11-04T12:46:04.058Z,11.13
2022-11-04T12:49:18.507Z,10.85
2022-11-04T12:52:30.027Z,10.66
2022-11-04T12:55:39.540Z,10.54
2022-11-04T12:58:52.129Z,10.53
2022-11-04T13:01:56.208Z,10.47
2022-11-04T13:05:03.296Z,10.44
2022-11-04T13:08:14.179Z,10.45
2022-11-04T13:11:23.955Z,10.59
2022-11-04T13:14:30.346Z,10.73
2022-11-04T13:17:33.867Z,10.71
2022-11-04T13:20:43.452Z,10.76
2022-11-04T13:23:50.894Z,10.81
2022-11-04T13:26:52.617Z,10.79
2022-11-04T13:30:03.665Z,10.82
2022-11-04T13:33:09.227Z,10.79
2022-11-04T13:36:21.830Z,10.75
2022-11-04T13:39:25.432Z,10.85
2022-11-04T13:42:41.950Z,11.09
2022-11-04T13:45:48.682Z,11.22
2022-11-04T13:48:58.597Z,11.36
2022-11-04T13:52:08.718Z,11.58
2022-11-04T13:55:21.528Z,11.50
2022-11-04T13:58:25.145Z,11.47
2022-11-04T14:01:28.284Z,11.41
2022-11-04T14:04:30.501Z,11.27
2022-11-04T14:07:46.884Z,11.17
2022-11-04T14:11:03.730Z,11.16
2022-11-04T14:14:16.338Z,11.13
2022-11-04T14:17:41.829Z,11.08
2022-11-04T14:21:03.834Z,11.05
2022-11-04T14:24:16.319Z,11.05
2022-11-04T14:27:26.842Z,10.98
2022-11-04T14:30:34.563Z,10.98
2022-11-04T14:33:37.958Z,10.92
2022-11-04T14:36:40.493Z,10.84
2022-11-04T14:39:42.642Z,10.73
2022-11-04T14:42:49.320Z,10.73
2022-11-04T14:45:55.463Z,10.73
2022-11-04T14:48:57.925Z,10.70
2022-11-04T14:52:00.087Z,10.63
2022-11-04T14:55:03.991Z,10.57
2022-11-04T14:58:22.173Z,10.53
2022-11-04T15:01:27.453Z,10.48
2022-11-04T15:04:32.805Z,10.46
2022-11-04T15:07:36.332Z,10.43
2022-11-04T15:10:37.870Z,10.41
2022-11-04T15:13:44.685Z,10.41
2022-11-04T15:16:47.963Z,10.39
2022-11-04T15:19:51.369Z,10.34
2022-11-04T15:22:53.585Z,10.31
2022-11-04T15:25:56.091Z,10.31
2022-11-04T15:28:59.851Z,10.30
2022-11-04T15:32:05.320Z,10.28
2022-11-04T15:35:12.391Z,10.26
2022-11-04T15:38:14.956Z,10.20
2022-11-04T15:41:38.707Z,10.20
2022-11-04T15:44:45.511Z,10.17
2022-11-04T15:47:47.364Z,10.17
2022-11-04T15:50:52.259Z,10.17
2022-11-04T15:53:55.600Z,10.14
2022-11-04T15:57:00.663Z,10.12
2022-11-04T16:00:06.257Z,10.09
2022-11-04T16:03:17.500Z,10.07
2022-11-04T16:06:33.719Z,10.05
2022-11-04T16:09:45.508Z,10.03
2022-11-04T16:12:47.222Z,9.97
2022-11-04T16:15:51.663Z,9.93
2022-11-04T16:18:54.259Z,9.90
2022-11-04T16:21:59.830Z,9.90
2022-11-04T16:25:02.859Z,9.88
2022-11-04T16:28:04.453Z,9.85
2022-11-04T16:31:11.311Z,9.85
2022-11-04T16:34:13.341Z,9.84
2022-11-04T16:37:15.509Z,9.84
2022-11-04T16:40:17.686Z,9.85
2022-11-04T16:43:21.212Z,9.83
2022-11-04T16:46:35.786Z,9.81
2022-11-04T16:49:37.412Z,9.82
2022-11-04T16:52:43.153Z,9.78
2022-11-04T16:55:46.263Z,9.76
2022-11-04T16:58:47.848Z,9.75
2022-11-04T17:01:50.731Z,9.74
2022-11-04T17:04:55.260Z,9.75
2022-11-04T17:08:04.420Z,9.71
2022-11-04T17:11:06.530Z,9.65
2022-11-04T17:14:08.183Z,9.56
2022-11-04T17:17:11.246Z,9.52
2022-11-04T17:20:14.188Z,9.41
2022-11-04T17:23:15.961Z,9.36
2022-11-04T17:26:17.514Z,9.35
2022-11-04T17:29:19.000Z,9.30
2022-11-04T17:32:21.928Z,9.24
2022-11-04T17:35:23.421Z,9.13
2022-11-04T17:38:26.116Z,9.04
2022-11-04T17:41:46.306Z,8.95
2022-11-04T17:44:47.776Z,8.88
2022-11-04T17:47:50.700Z,8.94
2022-11-04T17:50:52.236Z,8.96
2022-11-04T17:53:53.955Z,8.96
2022-11-04T17:56:56.086Z,8.95
2022-11-04T17:59:57.546Z,8.82
2022-11-04T18:03:00.723Z,8.69
2022-11-04T18:06:02.851Z,8.60
2022-11-04T18:09:04.405Z,8.59
2022-11-04T18:12:25.139Z,8.61
2022-11-04T18:15:26.713Z,8.70
2022-11-04T18:18:29.693Z,8.71
2022-11-04T18:21:32.216Z,8.70
2022-11-04T18:24:34.288Z,8.68
2022-11-04T18:27:37.022Z,8.64
2022-11-04T18:30:38.962Z,8.62
2022-11-04T18:33:43.081Z,8.60
2022-11-04T18:36:45.377Z,8.57
2022-11-04T18:39:47.019Z,8.56
2022-11-04T18:42:48.555Z,8.51
2022-11-04T18:45:50.529Z,8.51
2022-11-04T18:48:53.622Z,8.45
2022-11-04T18:51:55.332Z,8.40
2022-11-04T18:54:56.860Z,8.44
2022-11-04T18:57:58.598Z,8.42
2022-11-04T19:01:00.294Z,8.38
2022-11-04T19:04:03.795Z,8.40
2022-11-04T19:07:05.242Z,8.37
2022-11-04T19:10:07.217Z,8.35
2022-11-04T19:13:17.928Z,8.39
2022-11-04T19:16:19.430Z,8.39
2022-11-04T19:19:22.414Z,8.37
2022-11-04T19:22:23.963Z,8.31
2022-11-04T19:25:25.496Z,8.32
2022-11-04T19:28:40.379Z,8.29
2022-11-04T19:31:48.830Z,8.30
2022-11-04T19:34:51.839Z,8.31
2022-11-04T19:37:54.040Z,8.31
2022-11-04T19:40:55.901Z,8.29
2022-11-04T19:43:57.760Z,8.32
2022-11-04T19:46:59.243Z,8.31
2022-11-04T19:50:02.326Z,8.23
2022-11-04T19:53:03.805Z,8.24
2022-11-04T19:56:05.567Z,8.21
2022-11-04T19:59:08.341Z,8.19
2022-11-04T20:02:10.128Z,8.18
2022-11-04T20:05:13.189Z,8.16
2022-11-04T20:08:14.756Z,8.10
2022-11-04T20:11:17.564Z,8.08
2022-11-04T20:14:19.298Z,8.09
2022-11-04T20:17:21.026Z,8.06
2022-11-04T20:20:23.927Z,8.04
2022-11-04T20:23:25.517Z,8.00
2022-11-04T20:26:28.084Z,7.94
2022-11-04T20:29:29.634Z,7.90
2022-11-04T20:32:32.137Z,7.88
2022-11-04T20:35:35.327Z,7.87
2022-11-04T20:38:37.286Z,7.82
2022-11-04T20:41:39.005Z,7.83
2022-11-04T20:44:40.731Z,7.80
2022-11-04T20:47:42.705Z,7.80
2022-11-04T20:50:45.543Z,7.81
2022-11-04T20:53:48.069Z,7.80
2022-11-04T20:56:49.608Z,7.80
2022-11-04T20:59:51.154Z,7.79
2022-11-04T21:02:52.850Z,7.75
2022-11-04T21:05:57.523Z,7.69
2022-11-04T21:08:59.367Z,7.65
2022-11-04T21:12:00.829Z,7.69
2022-11-04T21:15:02.347Z,7.63
2022-11-04T21:18:04.058Z,7.54
2022-11-04T21:21:08.072Z,7.52
2022-11-04T21:24:11.336Z,7.51
2022-11-04T21:27:12.873Z,7.48
2022-11-04T21:30:14.314Z,7.45
2022-11-04T21:33:15.870Z,7.42
2022-11-04T21:36:19.277Z,7.42
2022-11-04T21:39:20.811Z,7.44
2022-11-04T21:42:22.421Z,7.40
2022-11-04T21:45:24.049Z,7.39
2022-11-04T21:48:25.644Z,7.34
2022-11-04T21:51:29.927Z,7.32
2022-11-04T21:54:31.719Z,7.32
2022-11-04T21:57:34.578Z,7.35
2022-11-04T22:00:36.021Z,7.40
2022-11-04T22:03:37.673Z,7.38
2022-11-04T22:06:40.744Z,7.38
2022-11-04T22:09:42.416Z,7.37
2022-11-04T22:12:50.040Z,7.32
2022-11-04T22:15:58.733Z,7.30
2022-11-04T22:19:01.818Z,7.29
2022-11-04T22:22:04.693Z,7.31
2022-11-04T22:25:07.761Z,7.27
2022-11-04T22:28:09.347Z,7.23
2022-11-04T22:31:11.831Z,7.23
2022-11-04T22:34:13.371Z,7.22
2022-11-04T22:37:16.238Z,7.18
2022-11-04T22:40:17.910Z,7.15
2022-11-04T22:43:21.266Z,7.16
2022-11-04T22:46:23.885Z,7.14
2022-11-04T22:49:25.434Z,7.11
2022-11-04T22:52:28.808Z,7.09
2022-11-04T22:55:30.640Z,7.07
2022-11-04T22:58:32.213Z,7.05
2022-11-04T23:01:34.351Z,7.05
2022-11-04T23:04:37.803Z,7.07
2022-11-04T23:07:41.497Z,7.08
2022-11-04T23:11:01.348Z,7.06
2022-11-04T23:14:21.611Z,7.03
2022-11-04T23:17:42.527Z,7.00
2022-11-04T23:20:44.021Z,6.94
2022-11-04T23:24:16.647Z,6.93
2022-11-04T23:27:37.870Z,6.92
2022-11-04T23:30:40.412Z,6.89
2022-11-04T23:34:00.361Z,6.89
2022-11-04T23:37:13.926Z,6.86
2022-11-04T23:40:17.231Z,6.82
2022-11-04T23:43:18.766Z,6.81
2022-11-04T23:46:43.035Z,6.83
2022-11-04T23:50:06.649Z,6.78
2022-11-04T23:53:26.452Z,6.80
2022-11-04T23:56:48.257Z,6.82
